sensor_id;sensor_type;location;lat;lon;timestamp;pressure;altitude;pressure_sealevel;temperature;humidity
12215;BME280;6170;42.206;24.142;2024-02-16T00:01:43;99297.44;;;5.22;64.72
12215;BME280;6170;42.206;24.142;2024-02-16T00:04:10;99259.31;;;4.87;65.21
12215;BME280;6170;42.206;24.142;2024-02-16T00:06:37;99302.34;;;4.91;65.64
12215;BME280;6170;42.206;24.142;2024-02-16T00:09:04;99297.25;;;5.23;64.96
12215;BME280;6170;42.206;24.142;2024-02-16T00:11:32;99468.16;;;6.11;65.27
12215;BME280;6170;42.206;24.142;2024-02-16T00:13:59;99302.88;;;4.94;65.63
12215;BME280;6170;42.206;24.142;2024-02-16T00:16:27;99303.44;;;5.06;64.97
12215;BME280;6170;42.206;24.142;2024-02-16T00:18:54;99299.97;;;4.88;65.88
12215;BME280;6170;42.206;24.142;2024-02-16T00:21:21;99303.72;;;4.95;66.10
12215;BME280;6170;42.206;24.142;2024-02-16T00:23:49;99303.56;;;4.79;66.18
12215;BME280;6170;42.206;24.142;2024-02-16T00:26:16;99306.97;;;4.71;66.11
12215;BME280;6170;42.206;24.142;2024-02-16T00:28:43;99301.66;;;4.71;66.36
12215;BME280;6170;42.206;24.142;2024-02-16T00:31:10;99273.69;;;4.59;66.04
12215;BME280;6170;42.206;24.142;2024-02-16T00:33:39;99294.09;;;4.76;65.93
12215;BME280;6170;42.206;24.142;2024-02-16T00:36:06;99272.63;;;4.70;65.59
12215;BME280;6170;42.206;24.142;2024-02-16T00:38:33;99276.72;;;4.82;65.59
12215;BME280;6170;42.206;24.142;2024-02-16T00:41:00;99292.00;;;4.88;65.43
12215;BME280;6170;42.206;24.142;2024-02-16T00:43:27;99299.13;;;5.05;65.19
12215;BME280;6170;42.206;24.142;2024-02-16T00:45:54;99289.88;;;4.91;65.28
12215;BME280;6170;42.206;24.142;2024-02-16T00:48:21;99464.44;;;5.78;66.07
12215;BME280;6170;42.206;24.142;2024-02-16T00:50:50;99292.56;;;4.74;65.75
12215;BME280;6170;42.206;24.142;2024-02-16T00:53:17;99279.56;;;4.88;65.31
12215;BME280;6170;42.206;24.142;2024-02-16T00:55:44;99315.75;;;5.07;65.39
12215;BME280;6170;42.206;24.142;2024-02-16T00:58:11;99290.44;;;4.95;65.10
12215;BME280;6170;42.206;24.142;2024-02-16T01:00:38;99458.41;;;5.94;65.52
12215;BME280;6170;42.206;24.142;2024-02-16T01:03:05;99283.81;;;4.99;65.32
12215;BME280;6170;42.206;24.142;2024-02-16T01:05:32;99281.19;;;4.81;65.55
12215;BME280;6170;42.206;24.142;2024-02-16T01:08:02;99292.72;;;4.72;65.72
12215;BME280;6170;42.206;24.142;2024-02-16T01:10:29;99297.56;;;4.94;65.43
12215;BME280;6170;42.206;24.142;2024-02-16T01:12:56;99458.84;;;6.07;65.29
12215;BME280;6170;42.206;24.142;2024-02-16T01:15:24;99257.13;;;4.83;64.72
12215;BME280;6170;42.206;24.142;2024-02-16T01:17:52;99290.78;;;4.82;65.32
12215;BME280;6170;42.206;24.142;2024-02-16T01:20:19;99455.47;;;5.97;65.44
12215;BME280;6170;42.206;24.142;2024-02-16T01:22:46;99277.41;;;4.66;65.70
12215;BME280;6170;42.206;24.142;2024-02-16T01:25:14;99292.66;;;4.82;65.57
12215;BME280;6170;42.206;24.142;2024-02-16T01:27:41;99270.78;;;4.70;65.64
12215;BME280;6170;42.206;24.142;2024-02-16T01:30:09;99455.75;;;5.76;65.93
12215;BME280;6170;42.206;24.142;2024-02-16T01:32:37;99284.91;;;4.71;65.87
12215;BME280;6170;42.206;24.142;2024-02-16T01:35:04;99280.91;;;4.49;66.16
12215;BME280;6170;42.206;24.142;2024-02-16T01:37:32;99220.78;;;4.04;66.48
12215;BME280;6170;42.206;24.142;2024-02-16T01:39:59;99273.63;;;4.16;66.51
12215;BME280;6170;42.206;24.142;2024-02-16T01:42:29;99283.22;;;4.34;67.05
12215;BME280;6170;42.206;24.142;2024-02-16T01:44:56;99275.28;;;4.34;66.76
12215;BME280;6170;42.206;24.142;2024-02-16T01:47:23;99264.91;;;4.41;66.43
12215;BME280;6170;42.206;24.142;2024-02-16T01:49:50;99269.88;;;4.26;66.82
12215;BME280;6170;42.206;24.142;2024-02-16T01:52:18;99261.41;;;4.40;66.40
12215;BME280;6170;42.206;24.142;2024-02-16T01:54:45;99367.66;;;5.02;66.48
12215;BME280;6170;42.206;24.142;2024-02-16T01:57:12;99260.88;;;4.37;66.66
12215;BME280;6170;42.206;24.142;2024-02-16T01:59:41;99242.38;;;4.27;66.64
12215;BME280;6170;42.206;24.142;2024-02-16T02:02:09;99272.94;;;4.49;66.34
12215;BME280;6170;42.206;24.142;2024-02-16T02:04:37;99260.66;;;4.48;66.54
12215;BME280;6170;42.206;24.142;2024-02-16T02:07:11;99258.59;;;4.06;66.96
12215;BME280;6170;42.206;24.142;2024-02-16T02:09:38;99251.00;;;4.12;67.36
12215;BME280;6170;42.206;24.142;2024-02-16T02:12:06;99264.84;;;4.33;66.99
12215;BME280;6170;42.206;24.142;2024-02-16T02:14:33;99271.25;;;4.30;67.58
12215;BME280;6170;42.206;24.142;2024-02-16T02:17:01;99256.16;;;4.13;67.23
12215;BME280;6170;42.206;24.142;2024-02-16T02:19:29;99237.53;;;4.05;67.51
12215;BME280;6170;42.206;24.142;2024-02-16T02:21:56;99256.91;;;4.05;67.76
12215;BME280;6170;42.206;24.142;2024-02-16T02:24:24;99430.09;;;5.23;67.71
12215;BME280;6170;42.206;24.142;2024-02-16T02:26:51;99282.31;;;4.26;67.84
12215;BME280;6170;42.206;24.142;2024-02-16T02:29:18;99271.19;;;4.22;67.71
12215;BME280;6170;42.206;24.142;2024-02-16T02:31:46;99440.44;;;5.26;67.92
12215;BME280;6170;42.206;24.142;2024-02-16T02:34:13;99313.09;;;4.19;68.48
12215;BME280;6170;42.206;24.142;2024-02-16T02:36:40;99300.19;;;4.06;68.25
12215;BME280;6170;42.206;24.142;2024-02-16T02:39:07;99274.34;;;4.08;68.10
12215;BME280;6170;42.206;24.142;2024-02-16T02:41:37;99270.03;;;4.07;68.15
12215;BME280;6170;42.206;24.142;2024-02-16T02:44:04;99376.53;;;4.75;67.69
12215;BME280;6170;42.206;24.142;2024-02-16T02:46:31;99262.09;;;4.25;67.58
12215;BME280;6170;42.206;24.142;2024-02-16T02:48:58;99273.63;;;4.33;67.12
12215;BME280;6170;42.206;24.142;2024-02-16T02:51:25;99270.06;;;4.42;66.64
12215;BME280;6170;42.206;24.142;2024-02-16T02:53:53;99293.13;;;4.60;66.68
12215;BME280;6170;42.206;24.142;2024-02-16T02:56:20;99303.94;;;4.66;66.38
12215;BME280;6170;42.206;24.142;2024-02-16T02:58:48;99267.03;;;4.37;66.54
12215;BME280;6170;42.206;24.142;2024-02-16T03:01:15;99285.22;;;4.68;66.36
12215;BME280;6170;42.206;24.142;2024-02-16T03:03:45;99442.84;;;5.81;65.48
12215;BME280;6170;42.206;24.142;2024-02-16T03:06:12;99295.41;;;4.98;65.04
12215;BME280;6170;42.206;24.142;2024-02-16T03:08:39;99447.13;;;5.92;64.93
12215;BME280;6170;42.206;24.142;2024-02-16T03:11:06;99302.41;;;4.99;64.67
12215;BME280;6170;42.206;24.142;2024-02-16T03:13:33;99293.22;;;4.93;65.16
12215;BME280;6170;42.206;24.142;2024-02-16T03:16:02;99453.34;;;5.82;65.08
12215;BME280;6170;42.206;24.142;2024-02-16T03:18:29;99280.50;;;4.62;65.76
12215;BME280;6170;42.206;24.142;2024-02-16T03:20:56;99467.13;;;5.60;66.17
12215;BME280;6170;42.206;24.142;2024-02-16T03:23:24;99310.53;;;4.62;65.69
12215;BME280;6170;42.206;24.142;2024-02-16T03:25:51;99294.75;;;4.43;65.98
12215;BME280;6170;42.206;24.142;2024-02-16T03:28:18;99292.66;;;4.29;66.39
12215;BME280;6170;42.206;24.142;2024-02-16T03:30:46;99297.97;;;4.46;66.37
12215;BME280;6170;42.206;24.142;2024-02-16T03:33:14;99310.59;;;4.35;66.63
12215;BME280;6170;42.206;24.142;2024-02-16T03:35:41;99514.28;;;5.40;66.12
12215;BME280;6170;42.206;24.142;2024-02-16T03:38:08;99479.28;;;5.27;66.24
12215;BME280;6170;42.206;24.142;2024-02-16T03:40:35;99262.63;;;4.11;66.09
12215;BME280;6170;42.206;24.142;2024-02-16T03:43:02;99471.88;;;5.31;66.48
12215;BME280;6170;42.206;24.142;2024-02-16T03:45:29;99293.84;;;4.34;66.06
12215;BME280;6170;42.206;24.142;2024-02-16T03:47:56;99312.22;;;4.45;66.10
12215;BME280;6170;42.206;24.142;2024-02-16T03:50:24;99412.19;;;4.90;66.63
12215;BME280;6170;42.206;24.142;2024-02-16T03:52:52;99319.94;;;4.57;65.81
12215;BME280;6170;42.206;24.142;2024-02-16T03:55:19;99300.81;;;4.35;66.03
12215;BME280;6170;42.206;24.142;2024-02-16T03:57:46;99280.03;;;4.13;66.26
12215;BME280;6170;42.206;24.142;2024-02-16T04:00:14;99220.44;;;3.45;66.53
12215;BME280;6170;42.206;24.142;2024-02-16T04:02:41;99311.22;;;4.01;66.74
12215;BME280;6170;42.206;24.142;2024-02-16T04:05:08;99317.81;;;4.25;66.64
12215;BME280;6170;42.206;24.142;2024-02-16T04:07:37;99314.66;;;4.29;66.46
12215;BME280;6170;42.206;24.142;2024-02-16T04:10:04;99313.22;;;4.17;67.04
12215;BME280;6170;42.206;24.142;2024-02-16T04:12:32;99315.19;;;4.15;67.04
12215;BME280;6170;42.206;24.142;2024-02-16T04:14:59;99309.66;;;4.08;67.08
12215;BME280;6170;42.206;24.142;2024-02-16T04:17:26;99281.31;;;3.82;67.41
12215;BME280;6170;42.206;24.142;2024-02-16T04:19:53;99295.31;;;4.01;67.24
12215;BME280;6170;42.206;24.142;2024-02-16T04:22:20;99307.59;;;4.02;67.37
12215;BME280;6170;42.206;24.142;2024-02-16T04:24:48;99306.91;;;4.00;67.17
12215;BME280;6170;42.206;24.142;2024-02-16T04:27:15;99298.44;;;4.15;66.65
12215;BME280;6170;42.206;24.142;2024-02-16T04:29:42;99411.09;;;4.83;66.54
12215;BME280;6170;42.206;24.142;2024-02-16T04:32:09;99417.09;;;4.67;67.05
12215;BME280;6170;42.206;24.142;2024-02-16T04:34:36;99290.75;;;3.94;66.94
12215;BME280;6170;42.206;24.142;2024-02-16T04:37:03;99294.22;;;3.94;66.98
12215;BME280;6170;42.206;24.142;2024-02-16T04:39:30;99322.03;;;4.18;66.75
12215;BME280;6170;42.206;24.142;2024-02-16T04:41:58;99487.69;;;5.05;67.09
12215;BME280;6170;42.206;24.142;2024-02-16T04:44:25;99497.00;;;4.91;67.71
12215;BME280;6170;42.206;24.142;2024-02-16T04:46:52;99313.94;;;3.92;67.36
12215;BME280;6170;42.206;24.142;2024-02-16T04:49:19;99316.22;;;3.77;67.87
12215;BME280;6170;42.206;24.142;2024-02-16T04:51:47;99323.81;;;3.90;67.33
12215;BME280;6170;42.206;24.142;2024-02-16T04:54:14;99310.84;;;3.59;68.40
12215;BME280;6170;42.206;24.142;2024-02-16T04:56:41;99488.28;;;4.81;68.11
12215;BME280;6170;42.206;24.142;2024-02-16T04:59:09;99313.97;;;3.82;67.85
12215;BME280;6170;42.206;24.142;2024-02-16T05:01:36;99316.13;;;3.69;68.30
12215;BME280;6170;42.206;24.142;2024-02-16T05:04:03;99288.81;;;3.59;67.87
12215;BME280;6170;42.206;24.142;2024-02-16T05:06:30;99316.03;;;3.88;67.80
12215;BME280;6170;42.206;24.142;2024-02-16T05:08:57;99499.81;;;4.90;68.00
12215;BME280;6170;42.206;24.142;2024-02-16T05:11:24;99313.28;;;3.80;67.87
12215;BME280;6170;42.206;24.142;2024-02-16T05:13:53;99502.91;;;4.58;68.52
12215;BME280;6170;42.206;24.142;2024-02-16T05:16:21;99304.03;;;3.57;68.14
12215;BME280;6170;42.206;24.142;2024-02-16T05:18:48;99297.38;;;3.53;68.13
12215;BME280;6170;42.206;24.142;2024-02-16T05:21:16;99331.34;;;3.67;68.74
12215;BME280;6170;42.206;24.142;2024-02-16T05:23:42;99323.34;;;3.77;68.21
12215;BME280;6170;42.206;24.142;2024-02-16T05:26:10;99371.34;;;3.74;68.40
12215;BME280;6170;42.206;24.142;2024-02-16T05:28:37;99297.75;;;3.21;68.61
12215;BME280;6170;42.206;24.142;2024-02-16T05:31:14;99317.41;;;3.55;68.63
12215;BME280;6170;42.206;24.142;2024-02-16T05:33:44;99518.59;;;4.79;68.39
12215;BME280;6170;42.206;24.142;2024-02-16T05:36:11;99521.47;;;4.95;67.94
12215;BME280;6170;42.206;24.142;2024-02-16T05:38:38;99513.28;;;4.79;68.63
12215;BME280;6170;42.206;24.142;2024-02-16T05:41:08;99336.31;;;3.80;67.96
12215;BME280;6170;42.206;24.142;2024-02-16T05:43:36;99431.06;;;4.15;68.49
12215;BME280;6170;42.206;24.142;2024-02-16T05:46:04;99344.72;;;3.66;69.02
12215;BME280;6170;42.206;24.142;2024-02-16T05:48:32;99526.59;;;4.96;68.56
12215;BME280;6170;42.206;24.142;2024-02-16T05:51:04;99373.31;;;3.99;68.26
12215;BME280;6170;42.206;24.142;2024-02-16T05:53:32;99376.31;;;3.86;68.82
12215;BME280;6170;42.206;24.142;2024-02-16T05:55:59;99357.13;;;3.75;69.06
12215;BME280;6170;42.206;24.142;2024-02-16T05:58:26;99355.81;;;3.88;69.08
12215;BME280;6170;42.206;24.142;2024-02-16T06:00:53;99353.03;;;4.35;67.07
12215;BME280;6170;42.206;24.142;2024-02-16T06:03:20;99538.38;;;5.39;67.50
12215;BME280;6170;42.206;24.142;2024-02-16T06:05:47;99551.22;;;5.79;66.65
12215;BME280;6170;42.206;24.142;2024-02-16T06:08:16;99322.00;;;5.24;65.11
12215;BME280;6170;42.206;24.142;2024-02-16T06:10:44;99364.44;;;5.33;64.81
12215;BME280;6170;42.206;24.142;2024-02-16T06:13:16;99364.78;;;5.13;65.16
12215;BME280;6170;42.206;24.142;2024-02-16T06:15:43;99359.69;;;4.84;66.09
12215;BME280;6170;42.206;24.142;2024-02-16T06:18:10;99369.53;;;4.91;66.19
12215;BME280;6170;42.206;24.142;2024-02-16T06:20:37;99539.91;;;7.22;62.90
12215;BME280;6170;42.206;24.142;2024-02-16T06:23:04;99326.31;;;6.60;60.54
12215;BME280;6170;42.206;24.142;2024-02-16T06:25:33;99393.97;;;7.40;60.67
12215;BME280;6170;42.206;24.142;2024-02-16T06:28:00;99376.81;;;7.43;59.97
12215;BME280;6170;42.206;24.142;2024-02-16T06:30:28;99380.97;;;8.64;56.94
12215;BME280;6170;42.206;24.142;2024-02-16T06:32:54;99405.41;;;9.52;55.57
12215;BME280;6170;42.206;24.142;2024-02-16T06:35:23;99378.03;;;10.31;53.47
12215;BME280;6170;42.206;24.142;2024-02-16T06:37:50;99407.44;;;11.32;51.81
12215;BME280;6170;42.206;24.142;2024-02-16T06:40:17;99409.50;;;11.73;50.33
12215;BME280;6170;42.206;24.142;2024-02-16T06:42:45;99459.91;;;12.67;48.85
12215;BME280;6170;42.206;24.142;2024-02-16T06:45:13;99399.81;;;12.40;48.29
12215;BME280;6170;42.206;24.142;2024-02-16T06:47:40;99410.72;;;12.73;48.00
12215;BME280;6170;42.206;24.142;2024-02-16T06:50:07;99542.09;;;13.71;46.85
12215;BME280;6170;42.206;24.142;2024-02-16T06:52:34;99392.84;;;12.11;48.76
12215;BME280;6170;42.206;24.142;2024-02-16T06:55:01;99535.06;;;13.70;47.35
12215;BME280;6170;42.206;24.142;2024-02-16T06:57:28;99391.66;;;12.68;47.56
12215;BME280;6170;42.206;24.142;2024-02-16T06:59:58;99388.72;;;10.96;49.41
12215;BME280;6170;42.206;24.142;2024-02-16T07:02:25;99378.63;;;10.62;51.12
12215;BME280;6170;42.206;24.142;2024-02-16T07:04:52;99547.03;;;10.88;52.39
12215;BME280;6170;42.206;24.142;2024-02-16T07:07:19;99374.06;;;9.23;54.11
12215;BME280;6170;42.206;24.142;2024-02-16T07:09:46;99326.19;;;9.13;53.82
12215;BME280;6170;42.206;24.142;2024-02-16T07:12:13;99541.09;;;10.93;53.25
12215;BME280;6170;42.206;24.142;2024-02-16T07:14:40;99342.81;;;10.05;51.75
12215;BME280;6170;42.206;24.142;2024-02-16T07:17:08;99368.34;;;9.26;53.88
12215;BME280;6170;42.206;24.142;2024-02-16T07:19:36;99369.72;;;9.22;54.52
12215;BME280;6170;42.206;24.142;2024-02-16T07:22:04;99368.16;;;9.50;54.31
12215;BME280;6170;42.206;24.142;2024-02-16T07:24:32;99383.63;;;9.77;53.44
12215;BME280;6170;42.206;24.142;2024-02-16T07:26:59;99353.69;;;9.59;53.88
12215;BME280;6170;42.206;24.142;2024-02-16T07:29:27;99298.16;;;8.64;54.54
12215;BME280;6170;42.206;24.142;2024-02-16T07:31:54;99382.28;;;9.59;54.19
12215;BME280;6170;42.206;24.142;2024-02-16T07:34:23;99526.13;;;10.84;54.52
12215;BME280;6170;42.206;24.142;2024-02-16T07:36:50;99370.84;;;10.67;52.30
12215;BME280;6170;42.206;24.142;2024-02-16T07:39:17;99369.56;;;11.42;51.25
12215;BME280;6170;42.206;24.142;2024-02-16T07:41:44;99374.66;;;10.94;51.75
12215;BME280;6170;42.206;24.142;2024-02-16T07:44:11;99369.00;;;10.68;52.25
12215;BME280;6170;42.206;24.142;2024-02-16T07:46:41;99347.44;;;11.40;50.84
12215;BME280;6170;42.206;24.142;2024-02-16T07:49:11;99362.84;;;12.08;49.88
12215;BME280;6170;42.206;24.142;2024-02-16T07:51:39;99363.66;;;11.74;49.06
12215;BME280;6170;42.206;24.142;2024-02-16T07:54:07;99355.69;;;11.38;50.25
12215;BME280;6170;42.206;24.142;2024-02-16T07:56:34;99523.72;;;12.86;50.28
12215;BME280;6170;42.206;24.142;2024-02-16T07:59:01;99521.19;;;12.44;50.61
12215;BME280;6170;42.206;24.142;2024-02-16T08:01:28;99367.69;;;11.42;50.50
12215;BME280;6170;42.206;24.142;2024-02-16T08:03:56;99372.25;;;11.42;51.10
12215;BME280;6170;42.206;24.142;2024-02-16T08:06:25;99355.59;;;12.08;50.35
12215;BME280;6170;42.206;24.142;2024-02-16T08:08:53;99353.88;;;12.29;49.57
12215;BME280;6170;42.206;24.142;2024-02-16T08:11:20;99361.38;;;12.05;49.44
12215;BME280;6170;42.206;24.142;2024-02-16T08:13:47;99393.56;;;12.81;48.93
12215;BME280;6170;42.206;24.142;2024-02-16T08:16:14;99346.66;;;12.36;48.81
12215;BME280;6170;42.206;24.142;2024-02-16T08:18:43;99347.88;;;12.94;47.69
12215;BME280;6170;42.206;24.142;2024-02-16T08:21:10;99522.63;;;13.69;48.90
12215;BME280;6170;42.206;24.142;2024-02-16T08:23:37;99367.50;;;12.88;48.21
12215;BME280;6170;42.206;24.142;2024-02-16T08:26:06;99398.06;;;13.41;48.57
12215;BME280;6170;42.206;24.142;2024-02-16T08:28:33;99369.69;;;13.91;47.72
12215;BME280;6170;42.206;24.142;2024-02-16T08:31:00;99375.44;;;14.41;46.46
12215;BME280;6170;42.206;24.142;2024-02-16T08:33:27;99373.88;;;13.74;47.24
12215;BME280;6170;42.206;24.142;2024-02-16T08:35:54;99376.75;;;13.72;47.17
12215;BME280;6170;42.206;24.142;2024-02-16T08:38:20;99372.63;;;13.43;47.20
12215;BME280;6170;42.206;24.142;2024-02-16T08:40:47;99525.53;;;14.66;47.16
12215;BME280;6170;42.206;24.142;2024-02-16T08:43:18;99365.31;;;14.03;46.80
12215;BME280;6170;42.206;24.142;2024-02-16T08:45:45;99525.97;;;15.34;46.14
12215;BME280;6170;42.206;24.142;2024-02-16T08:48:12;99353.81;;;14.54;46.33
12215;BME280;6170;42.206;24.142;2024-02-16T08:50:39;99378.56;;;15.20;44.85
12215;BME280;6170;42.206;24.142;2024-02-16T08:53:06;99518.88;;;15.40;45.89
12215;BME280;6170;42.206;24.142;2024-02-16T08:55:33;99376.47;;;14.33;46.64
12215;BME280;6170;42.206;24.142;2024-02-16T08:58:00;99391.41;;;15.24;44.99
12215;BME280;6170;42.206;24.142;2024-02-16T09:00:28;99351.84;;;15.43;44.91
12215;BME280;6170;42.206;24.142;2024-02-16T09:02:55;99517.66;;;16.54;44.05
12215;BME280;6170;42.206;24.142;2024-02-16T09:05:23;99371.56;;;15.12;45.48
12215;BME280;6170;42.206;24.142;2024-02-16T09:07:50;99519.41;;;15.93;44.83
12215;BME280;6170;42.206;24.142;2024-02-16T09:10:17;99374.66;;;15.47;43.83
12215;BME280;6170;42.206;24.142;2024-02-16T09:12:44;99368.25;;;15.42;44.37
12215;BME280;6170;42.206;24.142;2024-02-16T09:15:11;99366.72;;;15.21;45.52
12215;BME280;6170;42.206;24.142;2024-02-16T09:17:39;99369.53;;;16.32;44.48
12215;BME280;6170;42.206;24.142;2024-02-16T09:20:07;99369.72;;;15.69;43.84
12215;BME280;6170;42.206;24.142;2024-02-16T09:22:34;99259.09;;;15.31;43.63
12215;BME280;6170;42.206;24.142;2024-02-16T09:25:02;99358.53;;;16.08;42.87
12215;BME280;6170;42.206;24.142;2024-02-16T09:27:29;99396.13;;;16.53;43.97
12215;BME280;6170;42.206;24.142;2024-02-16T09:29:57;99384.72;;;16.69;43.19
12215;BME280;6170;42.206;24.142;2024-02-16T09:32:24;99516.06;;;17.86;44.18
12215;BME280;6170;42.206;24.142;2024-02-16T09:34:52;99365.56;;;16.71;43.47
12215;BME280;6170;42.206;24.142;2024-02-16T09:37:20;99378.81;;;17.20;42.43
12215;BME280;6170;42.206;24.142;2024-02-16T09:39:47;99375.66;;;17.35;42.33
12215;BME280;6170;42.206;24.142;2024-02-16T09:42:13;99357.59;;;17.17;41.55
12215;BME280;6170;42.206;24.142;2024-02-16T09:44:42;99341.28;;;17.24;41.64
12215;BME280;6170;42.206;24.142;2024-02-16T09:47:11;99339.69;;;17.58;41.43
12215;BME280;6170;42.206;24.142;2024-02-16T09:49:39;99491.72;;;18.21;42.34
12215;BME280;6170;42.206;24.142;2024-02-16T09:52:09;99364.72;;;17.00;40.64
12215;BME280;6170;42.206;24.142;2024-02-16T09:54:37;99361.69;;;17.49;40.49
12215;BME280;6170;42.206;24.142;2024-02-16T09:57:05;99356.09;;;16.91;42.40
12215;BME280;6170;42.206;24.142;2024-02-16T09:59:32;99482.50;;;17.09;41.43
12215;BME280;6170;42.206;24.142;2024-02-16T10:02:00;99296.28;;;15.54;40.90
12215;BME280;6170;42.206;24.142;2024-02-16T10:04:27;99369.69;;;16.37;42.32
12215;BME280;6170;42.206;24.142;2024-02-16T10:06:54;99348.34;;;16.65;41.98
12215;BME280;6170;42.206;24.142;2024-02-16T10:09:25;99382.13;;;16.38;41.71
12215;BME280;6170;42.206;24.142;2024-02-16T10:11:52;99286.41;;;16.57;41.00
12215;BME280;6170;42.206;24.142;2024-02-16T10:14:19;99462.09;;;17.55;41.85
12215;BME280;6170;42.206;24.142;2024-02-16T10:16:46;99308.88;;;16.03;41.77
12215;BME280;6170;42.206;24.142;2024-02-16T10:19:14;99455.84;;;16.94;41.40
12215;BME280;6170;42.206;24.142;2024-02-16T10:21:44;99277.63;;;15.52;40.93
12215;BME280;6170;42.206;24.142;2024-02-16T10:24:12;99326.41;;;16.55;43.25
12215;BME280;6170;42.206;24.142;2024-02-16T10:26:41;99296.72;;;16.30;40.36
12215;BME280;6170;42.206;24.142;2024-02-16T10:29:09;99440.63;;;17.12;41.33
12215;BME280;6170;42.206;24.142;2024-02-16T10:31:37;99316.50;;;16.79;41.85
12215;BME280;6170;42.206;24.142;2024-02-16T10:34:05;99438.75;;;17.95;40.96
12215;BME280;6170;42.206;24.142;2024-02-16T10:36:35;99311.88;;;17.50;40.51
12215;BME280;6170;42.206;24.142;2024-02-16T10:39:03;99316.34;;;17.45;40.66
12215;BME280;6170;42.206;24.142;2024-02-16T10:41:33;99301.53;;;16.94;40.01
12215;BME280;6170;42.206;24.142;2024-02-16T10:44:03;99237.88;;;16.62;41.38
12215;BME280;6170;42.206;24.142;2024-02-16T10:46:31;99434.03;;;17.90;41.36
12215;BME280;6170;42.206;24.142;2024-02-16T10:48:58;99242.81;;;15.99;42.64
12215;BME280;6170;42.206;24.142;2024-02-16T10:51:29;99318.63;;;15.86;42.44
12215;BME280;6170;42.206;24.142;2024-02-16T10:53:59;99283.75;;;15.10;43.06
12215;BME280;6170;42.206;24.142;2024-02-16T10:56:31;99270.78;;;15.18;41.86
12215;BME280;6170;42.206;24.142;2024-02-16T10:59:02;99249.56;;;14.72;42.82
12215;BME280;6170;42.206;24.142;2024-02-16T11:01:32;99297.88;;;15.12;43.25
12215;BME280;6170;42.206;24.142;2024-02-16T11:04:04;99418.44;;;15.56;44.54
12215;BME280;6170;42.206;24.142;2024-02-16T11:06:44;99352.34;;;15.58;43.23
12215;BME280;6170;42.206;24.142;2024-02-16T11:09:11;99142.38;;;13.92;43.77
12215;BME280;6170;42.206;24.142;2024-02-16T11:11:38;99288.41;;;14.96;42.61
12215;BME280;6170;42.206;24.142;2024-02-16T11:14:15;99268.72;;;15.20;42.34
12215;BME280;6170;42.206;24.142;2024-02-16T11:16:45;99273.13;;;14.83;42.88
12215;BME280;6170;42.206;24.142;2024-02-16T11:19:12;99270.91;;;15.05;43.84
12215;BME280;6170;42.206;24.142;2024-02-16T11:21:55;99283.53;;;15.36;42.96
12215;BME280;6170;42.206;24.142;2024-02-16T11:24:29;99266.31;;;15.12;42.34
12215;BME280;6170;42.206;24.142;2024-02-16T11:26:56;99403.03;;;16.31;44.13
12215;BME280;6170;42.206;24.142;2024-02-16T11:29:25;99261.34;;;15.59;42.78
12215;BME280;6170;42.206;24.142;2024-02-16T11:31:53;99396.34;;;17.18;43.08
12215;BME280;6170;42.206;24.142;2024-02-16T11:34:22;99245.44;;;16.24;44.39
12215;BME280;6170;42.206;24.142;2024-02-16T11:36:52;99254.63;;;16.82;43.00
12215;BME280;6170;42.206;24.142;2024-02-16T11:39:20;99239.06;;;16.18;43.96
12215;BME280;6170;42.206;24.142;2024-02-16T11:41:47;99394.44;;;17.06;42.71
12215;BME280;6170;42.206;24.142;2024-02-16T11:44:14;99246.25;;;15.26;42.08
12215;BME280;6170;42.206;24.142;2024-02-16T11:46:44;99273.25;;;15.51;43.61
12215;BME280;6170;42.206;24.142;2024-02-16T11:49:11;99383.06;;;16.50;42.09
12215;BME280;6170;42.206;24.142;2024-02-16T11:51:38;99262.69;;;16.41;42.88
12215;BME280;6170;42.206;24.142;2024-02-16T11:54:05;99232.81;;;15.63;42.16
12215;BME280;6170;42.206;24.142;2024-02-16T11:56:33;99188.72;;;15.87;43.94
12215;BME280;6170;42.206;24.142;2024-02-16T11:59:00;99185.22;;;15.98;44.27
12215;BME280;6170;42.206;24.142;2024-02-16T12:01:27;99239.59;;;15.90;42.58
12215;BME280;6170;42.206;24.142;2024-02-16T12:03:56;99375.84;;;16.62;42.85
12215;BME280;6170;42.206;24.142;2024-02-16T12:06:23;99242.38;;;15.84;42.99
12215;BME280;6170;42.206;24.142;2024-02-16T12:08:51;99316.84;;;16.16;44.04
12215;BME280;6170;42.206;24.142;2024-02-16T12:11:19;99372.97;;;16.39;44.06
12215;BME280;6170;42.206;24.142;2024-02-16T12:13:46;99371.44;;;15.88;45.42
12215;BME280;6170;42.206;24.142;2024-02-16T12:16:12;99231.63;;;15.09;44.07
12215;BME280;6170;42.206;24.142;2024-02-16T12:18:39;99205.06;;;15.13;46.23
12215;BME280;6170;42.206;24.142;2024-02-16T12:21:08;99372.44;;;16.30;45.25
12215;BME280;6170;42.206;24.142;2024-02-16T12:23:36;99248.59;;;15.66;44.83
12215;BME280;6170;42.206;24.142;2024-02-16T12:26:03;99200.19;;;14.97;44.71
12215;BME280;6170;42.206;24.142;2024-02-16T12:28:31;99195.50;;;15.10;46.74
12215;BME280;6170;42.206;24.142;2024-02-16T12:30:58;99355.06;;;15.83;45.55
12215;BME280;6170;42.206;24.142;2024-02-16T12:33:26;99242.44;;;15.34;45.03
12215;BME280;6170;42.206;24.142;2024-02-16T12:35:53;99206.75;;;15.07;44.73
12215;BME280;6170;42.206;24.142;2024-02-16T12:38:21;99094.22;;;14.40;45.37
12215;BME280;6170;42.206;24.142;2024-02-16T12:40:48;99201.72;;;15.11;44.83
12215;BME280;6170;42.206;24.142;2024-02-16T12:43:15;99210.78;;;14.98;44.92
12215;BME280;6170;42.206;24.142;2024-02-16T12:45:44;99204.63;;;15.09;45.05
12215;BME280;6170;42.206;24.142;2024-02-16T12:48:11;99350.19;;;15.92;44.89
12215;BME280;6170;42.206;24.142;2024-02-16T12:50:40;99203.00;;;14.83;46.93
12215;BME280;6170;42.206;24.142;2024-02-16T12:53:07;99344.41;;;15.63;45.42
12215;BME280;6170;42.206;24.142;2024-02-16T12:55:35;99206.63;;;14.71;45.68
12215;BME280;6170;42.206;24.142;2024-02-16T12:58:03;99174.25;;;14.39;47.06
12215;BME280;6170;42.206;24.142;2024-02-16T13:00:30;99342.19;;;15.54;46.35
12215;BME280;6170;42.206;24.142;2024-02-16T13:02:57;99189.59;;;14.39;45.95
12215;BME280;6170;42.206;24.142;2024-02-16T13:05:24;99192.19;;;14.59;46.88
12215;BME280;6170;42.206;24.142;2024-02-16T13:07:51;99170.91;;;14.44;45.77